sensor_id;sensor_type;location;lat;lon;timestamp;P1;durP1;ratioP1;P2;durP2;ratioP2
11572;SDS011;5842;52.426;4.886;2023-04-15T00:07:32;12.77;;;9.47;;
11572;SDS011;5842;52.426;4.886;2023-04-15T00:16:50;11.47;;;8.83;;
11572;SDS011;5842;52.426;4.886;2023-04-15T00:35:18;11.20;;;8.90;;
11572;SDS011;5842;52.426;4.886;2023-04-15T00:38:37;11.60;;;8.87;;
11572;SDS011;5842;52.426;4.886;2023-04-15T01:04:32;12.97;;;9.50;;
11572;SDS011;5842;52.426;4.886;2023-04-15T01:07:08;15.50;;;10.23;;
11572;SDS011;5842;52.426;4.886;2023-04-15T01:09:40;15.13;;;9.73;;
11572;SDS011;5842;52.426;4.886;2023-04-15T04:20:11;17.87;;;10.97;;
11572;SDS011;5842;52.426;4.886;2023-04-15T04:23:00;18.83;;;10.87;;
11572;SDS011;5842;52.426;4.886;2023-04-15T04:25:41;15.10;;;10.50;;
11572;SDS011;5842;52.426;4.886;2023-04-15T04:28:12;14.87;;;10.43;;
11572;SDS011;5842;52.426;4.886;2023-04-15T04:30:45;16.70;;;10.03;;
11572;SDS011;5842;52.426;4.886;2023-04-15T04:33:16;17.50;;;10.67;;
11572;SDS011;5842;52.426;4.886;2023-04-15T04:35:46;15.70;;;10.07;;
11572;SDS011;5842;52.426;4.886;2023-04-15T04:38:38;14.37;;;10.33;;
11572;SDS011;5842;52.426;4.886;2023-04-15T04:42:48;17.40;;;11.63;;
11572;SDS011;5842;52.426;4.886;2023-04-15T04:44:15;19.43;;;11.97;;
11572;SDS011;5842;52.426;4.886;2023-04-15T04:49:58;21.47;;;12.53;;
11572;SDS011;5842;52.426;4.886;2023-04-15T04:52:34;20.37;;;13.43;;
11572;SDS011;5842;52.426;4.886;2023-04-15T04:55:07;22.70;;;14.23;;
11572;SDS011;5842;52.426;4.886;2023-04-15T04:57:44;19.13;;;13.50;;
11572;SDS011;5842;52.426;4.886;2023-04-15T05:00:17;24.17;;;14.57;;
11572;SDS011;5842;52.426;4.886;2023-04-15T05:03:07;21.23;;;14.70;;
11572;SDS011;5842;52.426;4.886;2023-04-15T05:05:48;23.70;;;15.33;;
11572;SDS011;5842;52.426;4.886;2023-04-15T05:26:51;23.83;;;14.57;;
11572;SDS011;5842;52.426;4.886;2023-04-15T05:29:18;25.00;;;15.57;;
11572;SDS011;5842;52.426;4.886;2023-04-15T05:31:45;30.97;;;16.00;;
11572;SDS011;5842;52.426;4.886;2023-04-15T05:34:13;25.30;;;16.40;;
11572;SDS011;5842;52.426;4.886;2023-04-15T05:36:41;27.37;;;16.10;;
11572;SDS011;5842;52.426;4.886;2023-04-15T05:39:19;30.57;;;16.67;;
11572;SDS011;5842;52.426;4.886;2023-04-15T05:41:51;26.40;;;15.77;;
11572;SDS011;5842;52.426;4.886;2023-04-15T05:44:23;26.27;;;15.53;;
11572;SDS011;5842;52.426;4.886;2023-04-15T05:49:39;26.27;;;15.57;;
11572;SDS011;5842;52.426;4.886;2023-04-15T05:52:27;22.80;;;15.77;;
11572;SDS011;5842;52.426;4.886;2023-04-15T05:54:59;22.00;;;14.30;;
11572;SDS011;5842;52.426;4.886;2023-04-15T06:06:26;19.17;;;13.80;;
11572;SDS011;5842;52.426;4.886;2023-04-15T06:21:10;19.97;;;13.00;;
11572;SDS011;5842;52.426;4.886;2023-04-15T07:03:05;13.03;;;9.27;;
11572;SDS011;5842;52.426;4.886;2023-04-15T07:09:50;12.37;;;9.03;;
11572;SDS011;5842;52.426;4.886;2023-04-15T07:12:22;12.43;;;9.00;;
11572;SDS011;5842;52.426;4.886;2023-04-15T07:14:54;13.37;;;8.90;;
11572;SDS011;5842;52.426;4.886;2023-04-15T07:17:47;11.50;;;8.00;;
11572;SDS011;5842;52.426;4.886;2023-04-15T07:48:50;5.23;;;4.73;;
11572;SDS011;5842;52.426;4.886;2023-04-15T07:51:27;5.60;;;5.10;;
11572;SDS011;5842;52.426;4.886;2023-04-15T07:54:10;5.57;;;4.90;;
11572;SDS011;5842;52.426;4.886;2023-04-15T07:59:57;5.43;;;4.23;;
11572;SDS011;5842;52.426;4.886;2023-04-15T08:02:24;5.17;;;4.43;;
11572;SDS011;5842;52.426;4.886;2023-04-15T08:04:53;5.00;;;4.50;;
11572;SDS011;5842;52.426;4.886;2023-04-15T08:07:20;5.17;;;4.67;;
11572;SDS011;5842;52.426;4.886;2023-04-15T08:09:48;5.83;;;4.80;;
11572;SDS011;5842;52.426;4.886;2023-04-15T08:12:15;5.53;;;4.97;;
11572;SDS011;5842;52.426;4.886;2023-04-15T08:14:48;6.23;;;5.30;;
11572;SDS011;5842;52.426;4.886;2023-04-15T08:17:16;5.80;;;4.70;;
11572;SDS011;5842;52.426;4.886;2023-04-15T08:19:43;5.37;;;4.57;;
11572;SDS011;5842;52.426;4.886;2023-04-15T08:22:13;5.63;;;4.57;;
11572;SDS011;5842;52.426;4.886;2023-04-15T08:24:41;5.13;;;4.63;;
11572;SDS011;5842;52.426;4.886;2023-04-15T08:27:08;5.90;;;4.73;;
11572;SDS011;5842;52.426;4.886;2023-04-15T08:29:36;5.17;;;4.67;;
11572;SDS011;5842;52.426;4.886;2023-04-15T08:32:04;5.27;;;4.77;;
11572;SDS011;5842;52.426;4.886;2023-04-15T08:34:32;5.30;;;4.70;;
11572;SDS011;5842;52.426;4.886;2023-04-15T08:37:00;5.77;;;4.83;;
11572;SDS011;5842;52.426;4.886;2023-04-15T08:39:29;4.53;;;4.10;;
11572;SDS011;5842;52.426;4.886;2023-04-15T08:41:58;6.30;;;4.80;;
11572;SDS011;5842;52.426;4.886;2023-04-15T08:44:28;5.40;;;4.90;;
11572;SDS011;5842;52.426;4.886;2023-04-15T08:46:56;5.30;;;4.80;;
11572;SDS011;5842;52.426;4.886;2023-04-15T08:49:27;5.77;;;5.00;;
11572;SDS011;5842;52.426;4.886;2023-04-15T08:51:55;5.60;;;5.10;;
11572;SDS011;5842;52.426;4.886;2023-04-15T08:54:24;5.43;;;4.70;;
11572;SDS011;5842;52.426;4.886;2023-04-15T08:56:54;6.10;;;5.00;;
11572;SDS011;5842;52.426;4.886;2023-04-15T08:59:23;5.57;;;4.90;;
11572;SDS011;5842;52.426;4.886;2023-04-15T09:01:51;6.03;;;5.20;;
11572;SDS011;5842;52.426;4.886;2023-04-15T09:04:19;5.40;;;4.90;;
11572;SDS011;5842;52.426;4.886;2023-04-15T09:06:46;6.03;;;5.40;;
11572;SDS011;5842;52.426;4.886;2023-04-15T09:09:14;5.67;;;4.80;;
11572;SDS011;5842;52.426;4.886;2023-04-15T09:11:41;5.67;;;4.90;;
11572;SDS011;5842;52.426;4.886;2023-04-15T09:14:10;5.70;;;5.10;;
11572;SDS011;5842;52.426;4.886;2023-04-15T09:16:56;6.90;;;4.93;;
11572;SDS011;5842;52.426;4.886;2023-04-15T09:19:24;5.63;;;4.30;;
11572;SDS011;5842;52.426;4.886;2023-04-15T09:21:52;6.53;;;4.43;;
11572;SDS011;5842;52.426;4.886;2023-04-15T09:24:20;6.97;;;5.13;;
11572;SDS011;5842;52.426;4.886;2023-04-15T09:26:51;5.87;;;4.70;;
11572;SDS011;5842;52.426;4.886;2023-04-15T09:29:20;9.50;;;5.33;;
11572;SDS011;5842;52.426;4.886;2023-04-15T09:31:51;6.50;;;5.10;;
11572;SDS011;5842;52.426;4.886;2023-04-15T09:34:18;8.93;;;5.60;;
11572;SDS011;5842;52.426;4.886;2023-04-15T09:36:52;6.23;;;5.03;;
11572;SDS011;5842;52.426;4.886;2023-04-15T09:39:20;9.53;;;5.90;;
11572;SDS011;5842;52.426;4.886;2023-04-15T09:41:53;5.63;;;4.43;;
11572;SDS011;5842;52.426;4.886;2023-04-15T09:44:32;5.70;;;4.23;;
11572;SDS011;5842;52.426;4.886;2023-04-15T09:46:59;6.87;;;4.80;;
11572;SDS011;5842;52.426;4.886;2023-04-15T09:49:27;6.63;;;4.53;;
11572;SDS011;5842;52.426;4.886;2023-04-15T09:51:59;6.17;;;4.13;;
11572;SDS011;5842;52.426;4.886;2023-04-15T09:54:32;7.43;;;4.90;;
11572;SDS011;5842;52.426;4.886;2023-04-15T09:57:06;6.40;;;4.33;;
11572;SDS011;5842;52.426;4.886;2023-04-15T09:59:35;6.77;;;4.93;;
11572;SDS011;5842;52.426;4.886;2023-04-15T10:02:06;6.47;;;5.00;;
11572;SDS011;5842;52.426;4.886;2023-04-15T10:04:34;8.27;;;5.47;;
11572;SDS011;5842;52.426;4.886;2023-04-15T10:07:02;6.57;;;4.60;;
11572;SDS011;5842;52.426;4.886;2023-04-15T10:09:30;7.60;;;5.33;;
11572;SDS011;5842;52.426;4.886;2023-04-15T10:11:58;9.87;;;6.07;;
11572;SDS011;5842;52.426;4.886;2023-04-15T10:14:27;6.70;;;5.43;;
11572;SDS011;5842;52.426;4.886;2023-04-15T10:16:57;6.83;;;5.13;;
11572;SDS011;5842;52.426;4.886;2023-04-15T10:19:26;8.50;;;5.80;;
11572;SDS011;5842;52.426;4.886;2023-04-15T10:21:57;6.47;;;5.00;;
11572;SDS011;5842;52.426;4.886;2023-04-15T10:24:25;6.27;;;5.00;;
11572;SDS011;5842;52.426;4.886;2023-04-15T10:26:53;7.00;;;4.87;;
11572;SDS011;5842;52.426;4.886;2023-04-15T10:29:22;9.13;;;5.47;;
11572;SDS011;5842;52.426;4.886;2023-04-15T10:31:49;7.13;;;5.03;;
11572;SDS011;5842;52.426;4.886;2023-04-15T10:34:20;7.83;;;5.43;;
11572;SDS011;5842;52.426;4.886;2023-04-15T10:36:50;6.57;;;4.87;;
11572;SDS011;5842;52.426;4.886;2023-04-15T10:42:05;6.60;;;4.23;;
11572;SDS011;5842;52.426;4.886;2023-04-15T10:44:34;6.03;;;4.30;;
11572;SDS011;5842;52.426;4.886;2023-04-15T10:47:03;6.37;;;4.67;;
11572;SDS011;5842;52.426;4.886;2023-04-15T10:49:32;5.00;;;3.60;;
11572;SDS011;5842;52.426;4.886;2023-04-15T10:52:00;6.17;;;3.40;;
11572;SDS011;5842;52.426;4.886;2023-04-15T10:54:31;4.83;;;2.97;;
11572;SDS011;5842;52.426;4.886;2023-04-15T10:57:13;4.63;;;3.33;;
11572;SDS011;5842;52.426;4.886;2023-04-15T11:00:10;4.77;;;3.30;;
11572;SDS011;5842;52.426;4.886;2023-04-15T11:02:38;4.83;;;3.10;;
11572;SDS011;5842;52.426;4.886;2023-04-15T11:05:07;4.80;;;3.40;;
11572;SDS011;5842;52.426;4.886;2023-04-15T11:07:36;4.40;;;3.20;;
11572;SDS011;5842;52.426;4.886;2023-04-15T11:10:03;3.07;;;2.77;;
11572;SDS011;5842;52.426;4.886;2023-04-15T11:12:51;3.33;;;2.80;;
11572;SDS011;5842;52.426;4.886;2023-04-15T11:15:27;3.53;;;3.00;;
11572;SDS011;5842;52.426;4.886;2023-04-15T11:17:55;4.53;;;3.40;;
11572;SDS011;5842;52.426;4.886;2023-04-15T11:20:24;5.33;;;3.83;;
11572;SDS011;5842;52.426;4.886;2023-04-15T11:22:53;3.30;;;2.73;;
11572;SDS011;5842;52.426;4.886;2023-04-15T11:25:21;4.57;;;3.40;;
11572;SDS011;5842;52.426;4.886;2023-04-15T11:27:48;6.30;;;3.53;;
11572;SDS011;5842;52.426;4.886;2023-04-15T11:30:17;4.77;;;3.33;;
11572;SDS011;5842;52.426;4.886;2023-04-15T11:32:46;5.33;;;3.50;;
11572;SDS011;5842;52.426;4.886;2023-04-15T11:35:13;4.50;;;3.20;;
11572;SDS011;5842;52.426;4.886;2023-04-15T11:37:44;4.00;;;3.30;;
11572;SDS011;5842;52.426;4.886;2023-04-15T11:40:12;7.17;;;3.80;;
11572;SDS011;5842;52.426;4.886;2023-04-15T11:42:41;6.97;;;3.93;;
11572;SDS011;5842;52.426;4.886;2023-04-15T11:45:13;5.27;;;3.40;;
11572;SDS011;5842;52.426;4.886;2023-04-15T11:47:41;4.97;;;3.10;;
11572;SDS011;5842;52.426;4.886;2023-04-15T11:50:15;4.80;;;3.50;;
11572;SDS011;5842;52.426;4.886;2023-04-15T11:52:53;5.37;;;3.20;;
11572;SDS011;5842;52.426;4.886;2023-04-15T11:55:20;4.23;;;3.03;;
11572;SDS011;5842;52.426;4.886;2023-04-15T11:57:49;4.03;;;2.70;;
11572;SDS011;5842;52.426;4.886;2023-04-15T12:00:16;3.30;;;3.00;;
11572;SDS011;5842;52.426;4.886;2023-04-15T12:02:46;3.67;;;2.90;;
11572;SDS011;5842;52.426;4.886;2023-04-15T12:05:13;3.23;;;2.77;;
11572;SDS011;5842;52.426;4.886;2023-04-15T12:10:24;3.80;;;3.00;;
11572;SDS011;5842;52.426;4.886;2023-04-15T12:12:52;5.13;;;2.70;;
11572;SDS011;5842;52.426;4.886;2023-04-15T12:15:20;4.30;;;2.47;;
11572;SDS011;5842;52.426;4.886;2023-04-15T12:17:54;2.93;;;2.63;;
11572;SDS011;5842;52.426;4.886;2023-04-15T12:20:24;3.73;;;2.40;;
11572;SDS011;5842;52.426;4.886;2023-04-15T12:22:51;4.90;;;2.90;;
11572;SDS011;5842;52.426;4.886;2023-04-15T12:25:20;3.87;;;2.57;;
11572;SDS011;5842;52.426;4.886;2023-04-15T12:28:02;4.10;;;2.90;;
11572;SDS011;5842;52.426;4.886;2023-04-15T12:30:47;4.23;;;2.90;;
11572;SDS011;5842;52.426;4.886;2023-04-15T12:33:18;5.23;;;3.07;;
11572;SDS011;5842;52.426;4.886;2023-04-15T12:35:46;3.60;;;3.10;;
11572;SDS011;5842;52.426;4.886;2023-04-15T12:38:13;3.57;;;2.83;;
11572;SDS011;5842;52.426;4.886;2023-04-15T12:40:40;6.10;;;2.87;;
11572;SDS011;5842;52.426;4.886;2023-04-15T12:43:10;4.17;;;2.90;;
11572;SDS011;5842;52.426;4.886;2023-04-15T12:45:37;4.40;;;2.80;;
11572;SDS011;5842;52.426;4.886;2023-04-15T12:48:05;6.27;;;2.73;;
11572;SDS011;5842;52.426;4.886;2023-04-15T12:50:33;4.70;;;3.20;;
11572;SDS011;5842;52.426;4.886;2023-04-15T12:53:01;3.83;;;2.83;;
11572;SDS011;5842;52.426;4.886;2023-04-15T12:55:28;5.10;;;3.03;;
11572;SDS011;5842;52.426;4.886;2023-04-15T12:57:59;5.43;;;3.10;;
11572;SDS011;5842;52.426;4.886;2023-04-15T13:00:27;4.83;;;3.10;;
11572;SDS011;5842;52.426;4.886;2023-04-15T13:02:55;5.77;;;2.77;;
11572;SDS011;5842;52.426;4.886;2023-04-15T13:05:22;3.67;;;2.53;;
11572;SDS011;5842;52.426;4.886;2023-04-15T13:07:50;3.40;;;2.30;;
11572;SDS011;5842;52.426;4.886;2023-04-15T13:10:17;4.73;;;2.40;;
11572;SDS011;5842;52.426;4.886;2023-04-15T13:12:47;4.53;;;3.60;;
11572;SDS011;5842;52.426;4.886;2023-04-15T13:15:17;3.77;;;2.70;;
11572;SDS011;5842;52.426;4.886;2023-04-15T13:17:48;4.50;;;2.00;;
11572;SDS011;5842;52.426;4.886;2023-04-15T13:20:15;3.00;;;1.90;;
11572;SDS011;5842;52.426;4.886;2023-04-15T13:22:44;6.00;;;2.20;;
11572;SDS011;5842;52.426;4.886;2023-04-15T13:25:11;3.13;;;2.40;;
11572;SDS011;5842;52.426;4.886;2023-04-15T13:27:39;2.87;;;2.20;;
11572;SDS011;5842;52.426;4.886;2023-04-15T13:30:07;2.70;;;1.70;;
11572;SDS011;5842;52.426;4.886;2023-04-15T13:32:34;3.80;;;2.10;;
11572;SDS011;5842;52.426;4.886;2023-04-15T13:35:03;2.87;;;2.20;;
11572;SDS011;5842;52.426;4.886;2023-04-15T13:37:31;3.30;;;1.90;;
11572;SDS011;5842;52.426;4.886;2023-04-15T13:40:01;4.53;;;2.03;;
11572;SDS011;5842;52.426;4.886;2023-04-15T13:42:31;4.27;;;1.90;;
11572;SDS011;5842;52.426;4.886;2023-04-15T13:44:58;2.80;;;1.50;;
11572;SDS011;5842;52.426;4.886;2023-04-15T13:47:26;3.23;;;2.07;;
11572;SDS011;5842;52.426;4.886;2023-04-15T13:49:53;2.67;;;1.90;;
11572;SDS011;5842;52.426;4.886;2023-04-15T13:52:22;4.17;;;1.93;;
11572;SDS011;5842;52.426;4.886;2023-04-15T13:54:50;3.67;;;1.80;;
11572;SDS011;5842;52.426;4.886;2023-04-15T13:57:17;5.03;;;2.40;;
11572;SDS011;5842;52.426;4.886;2023-04-15T13:59:45;3.93;;;2.20;;
11572;SDS011;5842;52.426;4.886;2023-04-15T14:02:12;4.93;;;2.10;;
11572;SDS011;5842;52.426;4.886;2023-04-15T14:04:39;3.20;;;1.80;;
11572;SDS011;5842;52.426;4.886;2023-04-15T14:07:07;3.13;;;2.00;;
11572;SDS011;5842;52.426;4.886;2023-04-15T14:09:36;4.13;;;2.10;;
11572;SDS011;5842;52.426;4.886;2023-04-15T14:12:03;5.00;;;2.27;;
11572;SDS011;5842;52.426;4.886;2023-04-15T14:14:31;5.57;;;2.40;;
11572;SDS011;5842;52.426;4.886;2023-04-15T14:16:59;5.33;;;2.70;;
11572;SDS011;5842;52.426;4.886;2023-04-15T14:19:26;7.83;;;2.70;;
11572;SDS011;5842;52.426;4.886;2023-04-15T14:21:53;4.90;;;2.30;;
11572;SDS011;5842;52.426;4.886;2023-04-15T14:24:21;4.70;;;2.50;;
11572;SDS011;5842;52.426;4.886;2023-04-15T14:26:49;4.60;;;2.60;;
11572;SDS011;5842;52.426;4.886;2023-04-15T14:29:17;4.20;;;2.20;;
11572;SDS011;5842;52.426;4.886;2023-04-15T14:31:44;5.20;;;2.47;;
11572;SDS011;5842;52.426;4.886;2023-04-15T14:34:12;5.33;;;2.50;;
11572;SDS011;5842;52.426;4.886;2023-04-15T14:36:40;4.53;;;2.50;;
11572;SDS011;5842;52.426;4.886;2023-04-15T14:39:07;4.53;;;2.67;;
11572;SDS011;5842;52.426;4.886;2023-04-15T14:41:37;5.50;;;2.40;;
11572;SDS011;5842;52.426;4.886;2023-04-15T14:44:07;9.20;;;2.60;;
11572;SDS011;5842;52.426;4.886;2023-04-15T14:46:38;6.17;;;2.97;;
11572;SDS011;5842;52.426;4.886;2023-04-15T14:49:06;5.70;;;2.60;;
11572;SDS011;5842;52.426;4.886;2023-04-15T14:51:33;8.37;;;2.53;;
11572;SDS011;5842;52.426;4.886;2023-04-15T14:54:01;5.47;;;2.37;;
11572;SDS011;5842;52.426;4.886;2023-04-15T14:56:28;6.23;;;2.10;;
11572;SDS011;5842;52.426;4.886;2023-04-15T14:58:56;6.57;;;2.17;;
11572;SDS011;5842;52.426;4.886;2023-04-15T15:01:25;4.20;;;1.90;;
11572;SDS011;5842;52.426;4.886;2023-04-15T15:03:55;5.27;;;2.23;;
11572;SDS011;5842;52.426;4.886;2023-04-15T15:06:23;5.07;;;2.10;;
11572;SDS011;5842;52.426;4.886;2023-04-15T15:08:50;4.83;;;2.13;;
11572;SDS011;5842;52.426;4.886;2023-04-15T15:11:21;4.10;;;1.67;;
11572;SDS011;5842;52.426;4.886;2023-04-15T15:13:49;3.80;;;1.90;;
11572;SDS011;5842;52.426;4.886;2023-04-15T15:16:20;5.60;;;1.90;;
11572;SDS011;5842;52.426;4.886;2023-04-15T15:18:50;6.57;;;1.80;;
11572;SDS011;5842;52.426;4.886;2023-04-15T15:21:18;4.93;;;2.10;;
11572;SDS011;5842;52.426;4.886;2023-04-15T15:23:45;7.13;;;2.37;;
11572;SDS011;5842;52.426;4.886;2023-04-15T15:26:13;5.40;;;2.20;;
11572;SDS011;5842;52.426;4.886;2023-04-15T15:29:12;6.37;;;2.17;;
11572;SDS011;5842;52.426;4.886;2023-04-15T15:31:42;7.03;;;2.23;;
11572;SDS011;5842;52.426;4.886;2023-04-15T15:34:19;5.77;;;2.13;;
11572;SDS011;5842;52.426;4.886;2023-04-15T15:36:47;5.93;;;2.90;;
11572;SDS011;5842;52.426;4.886;2023-04-15T15:39:14;6.50;;;2.10;;
11572;SDS011;5842;52.426;4.886;2023-04-15T15:41:44;8.00;;;2.20;;
11572;SDS011;5842;52.426;4.886;2023-04-15T15:44:12;6.40;;;1.90;;
11572;SDS011;5842;52.426;4.886;2023-04-15T15:46:39;3.73;;;1.83;;
11572;SDS011;5842;52.426;4.886;2023-04-15T15:49:07;6.23;;;2.00;;
11572;SDS011;5842;52.426;4.886;2023-04-15T15:51:36;9.47;;;1.70;;
11572;SDS011;5842;52.426;4.886;2023-04-15T15:54:11;6.73;;;1.80;;
11572;SDS011;5842;52.426;4.886;2023-04-15T15:56:39;7.00;;;1.87;;
11572;SDS011;5842;52.426;4.886;2023-04-15T15:59:06;2.87;;;1.47;;
11572;SDS011;5842;52.426;4.886;2023-04-15T16:01:36;3.20;;;1.50;;
11572;SDS011;5842;52.426;4.886;2023-04-15T16:04:03;7.10;;;1.77;;
11572;SDS011;5842;52.426;4.886;2023-04-15T16:06:32;5.97;;;2.10;;
11572;SDS011;5842;52.426;4.886;2023-04-15T16:09:13;6.03;;;1.90;;
11572;SDS011;5842;52.426;4.886;2023-04-15T16:11:40;6.27;;;2.40;;
11572;SDS011;5842;52.426;4.886;2023-04-15T16:14:08;7.50;;;1.90;;
11572;SDS011;5842;52.426;4.886;2023-04-15T16:16:42;4.93;;;1.80;;
11572;SDS011;5842;52.426;4.886;2023-04-15T16:19:09;6.70;;;2.10;;
11572;SDS011;5842;52.426;4.886;2023-04-15T16:21:37;6.87;;;2.43;;
11572;SDS011;5842;52.426;4.886;2023-04-15T16:24:07;9.50;;;2.20;;
11572;SDS011;5842;52.426;4.886;2023-04-15T16:26:38;5.60;;;1.90;;
11572;SDS011;5842;52.426;4.886;2023-04-15T16:29:06;7.87;;;1.80;;
11572;SDS011;5842;52.426;4.886;2023-04-15T16:31:33;6.47;;;1.90;;
11572;SDS011;5842;52.426;4.886;2023-04-15T16:34:02;8.87;;;1.77;;
11572;SDS011;5842;52.426;4.886;2023-04-15T16:36:32;10.07;;;2.37;;
11572;SDS011;5842;52.426;4.886;2023-04-15T16:39:00;6.10;;;1.90;;
11572;SDS011;5842;52.426;4.886;2023-04-15T16:41:29;3.70;;;1.80;;
11572;SDS011;5842;52.426;4.886;2023-04-15T16:43:59;7.13;;;2.87;;
11572;SDS011;5842;52.426;4.886;2023-04-15T16:46:28;10.00;;;2.20;;
11572;SDS011;5842;52.426;4.886;2023-04-15T16:48:56;6.77;;;2.23;;
11572;SDS011;5842;52.426;4.886;2023-04-15T16:51:23;6.13;;;2.10;;
11572;SDS011;5842;52.426;4.886;2023-04-15T16:53:54;6.97;;;1.90;;
11572;SDS011;5842;52.426;4.886;2023-04-15T16:56:32;7.13;;;2.07;;
11572;SDS011;5842;52.426;4.886;2023-04-15T16:58:59;5.00;;;1.83;;
11572;SDS011;5842;52.426;4.886;2023-04-15T17:01:27;4.80;;;1.67;;
11572;SDS011;5842;52.426;4.886;2023-04-15T17:03:54;4.67;;;1.50;;
11572;SDS011;5842;52.426;4.886;2023-04-15T17:06:22;5.70;;;1.40;;
11572;SDS011;5842;52.426;4.886;2023-04-15T17:08:49;6.90;;;1.87;;
11572;SDS011;5842;52.426;4.886;2023-04-15T17:11:16;7.47;;;1.70;;
11572;SDS011;5842;52.426;4.886;2023-04-15T17:13:45;4.47;;;1.80;;
11572;SDS011;5842;52.426;4.886;2023-04-15T17:16:13;7.70;;;1.90;;
11572;SDS011;5842;52.426;4.886;2023-04-15T17:18:40;7.53;;;2.00;;
11572;SDS011;5842;52.426;4.886;2023-04-15T17:21:08;9.83;;;2.00;;
11572;SDS011;5842;52.426;4.886;2023-04-15T17:23:35;7.40;;;1.90;;
11572;SDS011;5842;52.426;4.886;2023-04-15T17:26:02;5.23;;;1.53;;
11572;SDS011;5842;52.426;4.886;2023-04-15T17:28:30;9.03;;;1.80;;
11572;SDS011;5842;52.426;4.886;2023-04-15T17:30:59;6.53;;;2.00;;
11572;SDS011;5842;52.426;4.886;2023-04-15T17:33:26;7.27;;;1.77;;
11572;SDS011;5842;52.426;4.886;2023-04-15T17:35:54;7.57;;;1.63;;
11572;SDS011;5842;52.426;4.886;2023-04-15T17:38:21;5.43;;;1.80;;
11572;SDS011;5842;52.426;4.886;2023-04-15T17:40:48;3.87;;;1.60;;
11572;SDS011;5842;52.426;4.886;2023-04-15T17:43:16;6.67;;;1.77;;
11572;SDS011;5842;52.426;4.886;2023-04-15T17:45:43;3.60;;;1.50;;
11572;SDS011;5842;52.426;4.886;2023-04-15T17:48:13;4.67;;;1.37;;
11572;SDS011;5842;52.426;4.886;2023-04-15T17:50:43;6.47;;;1.80;;
11572;SDS011;5842;52.426;4.886;2023-04-15T17:53:10;5.27;;;1.97;;
11572;SDS011;5842;52.426;4.886;2023-04-15T17:55:38;5.97;;;1.53;;
11572;SDS011;5842;52.426;4.886;2023-04-15T17:58:05;5.87;;;1.60;;
11572;SDS011;5842;52.426;4.886;2023-04-15T18:00:32;7.73;;;2.30;;
11572;SDS011;5842;52.426;4.886;2023-04-15T18:03:00;6.80;;;1.83;;
11572;SDS011;5842;52.426;4.886;2023-04-15T18:05:29;7.30;;;1.90;;
11572;SDS011;5842;52.426;4.886;2023-04-15T18:07:56;7.73;;;2.50;;
11572;SDS011;5842;52.426;4.886;2023-04-15T18:10:24;8.03;;;1.90;;
11572;SDS011;5842;52.426;4.886;2023-04-15T18:12:51;6.67;;;1.97;;
11572;SDS011;5842;52.426;4.886;2023-04-15T18:15:18;9.43;;;2.37;;
11572;SDS011;5842;52.426;4.886;2023-04-15T18:17:46;6.70;;;2.13;;
11572;SDS011;5842;52.426;4.886;2023-04-15T18:20:13;9.87;;;2.33;;
11572;SDS011;5842;52.426;4.886;2023-04-15T18:22:42;4.53;;;1.80;;
11572;SDS011;5842;52.426;4.886;2023-04-15T18:25:10;6.27;;;1.87;;
11572;SDS011;5842;52.426;4.886;2023-04-15T18:27:37;5.53;;;1.80;;
11572;SDS011;5842;52.426;4.886;2023-04-15T18:30:05;7.27;;;2.07;;
11572;SDS011;5842;52.426;4.886;2023-04-15T18:32:35;7.67;;;2.13;;
11572;SDS011;5842;52.426;4.886;2023-04-15T18:35:03;6.00;;;1.70;;
11572;SDS011;5842;52.426;4.886;2023-04-15T18:37:30;2.80;;;1.63;;
11572;SDS011;5842;52.426;4.886;2023-04-15T18:39:59;7.00;;;1.83;;
11572;SDS011;5842;52.426;4.886;2023-04-15T18:42:26;5.37;;;1.83;;
11572;SDS011;5842;52.426;4.886;2023-04-15T18:44:54;5.87;;;1.87;;
11572;SDS011;5842;52.426;4.886;2023-04-15T18:47:21;8.57;;;2.10;;
11572;SDS011;5842;52.426;4.886;2023-04-15T18:49:49;6.10;;;1.90;;
11572;SDS011;5842;52.426;4.886;2023-04-15T18:52:16;11.27;;;2.43;;
11572;SDS011;5842;52.426;4.886;2023-04-15T18:54:43;6.17;;;1.80;;
11572;SDS011;5842;52.426;4.886;2023-04-15T18:57:12;7.50;;;1.90;;
11572;SDS011;5842;52.426;4.886;2023-04-15T18:59:40;6.47;;;1.83;;
11572;SDS011;5842;52.426;4.886;2023-04-15T19:02:07;7.43;;;1.53;;
11572;SDS011;5842;52.426;4.886;2023-04-15T19:04:34;4.37;;;1.50;;
11572;SDS011;5842;52.426;4.886;2023-04-15T19:07:02;7.73;;;1.90;;
11572;SDS011;5842;52.426;4.886;2023-04-15T19:09:29;4.87;;;1.47;;
11572;SDS011;5842;52.426;4.886;2023-04-15T19:11:59;6.87;;;1.70;;
11572;SDS011;5842;52.426;4.886;2023-04-15T19:14:28;6.00;;;1.90;;
11572;SDS011;5842;52.426;4.886;2023-04-15T19:16:56;4.77;;;1.60;;
11572;SDS011;5842;52.426;4.886;2023-04-15T19:19:23;6.53;;;1.87;;
11572;SDS011;5842;52.426;4.886;2023-04-15T19:21:51;7.63;;;2.40;;
11572;SDS011;5842;52.426;4.886;2023-04-15T19:24:18;5.20;;;1.80;;
11572;SDS011;5842;52.426;4.886;2023-04-15T19:26:47;9.00;;;2.63;;
11572;SDS011;5842;52.426;4.886;2023-04-15T19:29:15;4.43;;;2.03;;
11572;SDS011;5842;52.426;4.886;2023-04-15T19:31:48;5.90;;;1.50;;
11572;SDS011;5842;52.426;4.886;2023-04-15T19:34:16;3.97;;;1.33;;
11572;SDS011;5842;52.426;4.886;2023-04-15T19:36:43;4.53;;;1.70;;
11572;SDS011;5842;52.426;4.886;2023-04-15T19:39:10;4.87;;;1.67;;
11572;SDS011;5842;52.426;4.886;2023-04-15T19:41:38;3.43;;;1.50;;
11572;SDS011;5842;52.426;4.886;2023-04-15T19:44:05;6.53;;;1.73;;
11572;SDS011;5842;52.426;4.886;2023-04-15T19:46:33;7.07;;;1.80;;
11572;SDS011;5842;52.426;4.886;2023-04-15T19:49:02;7.40;;;1.70;;
11572;SDS011;5842;52.426;4.886;2023-04-15T19:51:29;1.37;;;1.27;;
11572;SDS011;5842;52.426;4.886;2023-04-15T19:53:57;4.23;;;1.50;;
11572;SDS011;5842;52.426;4.886;2023-04-15T19:56:24;4.47;;;1.90;;
11572;SDS011;5842;52.426;4.886;2023-04-15T19:58:52;3.40;;;1.60;;
11572;SDS011;5842;52.426;4.886;2023-04-15T20:01:19;7.30;;;2.07;;
11572;SDS011;5842;52.426;4.886;2023-04-15T20:03:47;3.83;;;1.67;;
11572;SDS011;5842;52.426;4.886;2023-04-15T20:06:16;4.47;;;1.90;;
11572;SDS011;5842;52.426;4.886;2023-04-15T20:08:43;5.53;;;1.83;;
11572;SDS011;5842;52.426;4.886;2023-04-15T20:11:10;5.63;;;2.23;;
11572;SDS011;5842;52.426;4.886;2023-04-15T20:13:38;8.07;;;1.70;;
11572;SDS011;5842;52.426;4.886;2023-04-15T20:16:06;3.43;;;1.83;;
11572;SDS011;5842;52.426;4.886;2023-04-15T20:18:33;4.57;;;2.00;;
11572;SDS011;5842;52.426;4.886;2023-04-15T20:21:00;7.23;;;2.03;;
11572;SDS011;5842;52.426;4.886;2023-04-15T20:23:29;4.40;;;1.60;;
11572;SDS011;5842;52.426;4.886;2023-04-15T20:25:56;3.80;;;1.80;;
11572;SDS011;5842;52.426;4.886;2023-04-15T20:28:25;5.07;;;1.90;;
11572;SDS011;5842;52.426;4.886;2023-04-15T20:30:53;7.83;;;2.07;;
11572;SDS011;5842;52.426;4.886;2023-04-15T20:33:20;5.90;;;1.87;;
11572;SDS011;5842;52.426;4.886;2023-04-15T20:35:49;7.13;;;1.90;;
11572;SDS011;5842;52.426;4.886;2023-04-15T20:38:17;8.27;;;2.00;;
11572;SDS011;5842;52.426;4.886;2023-04-15T20:40:47;9.17;;;2.17;;
11572;SDS011;5842;52.426;4.886;2023-04-15T20:43:15;4.57;;;2.00;;
11572;SDS011;5842;52.426;4.886;2023-04-15T20:45:42;5.17;;;1.90;;
11572;SDS011;5842;52.426;4.886;2023-04-15T20:48:10;4.20;;;2.10;;
11572;SDS011;5842;52.426;4.886;2023-04-15T20:50:38;7.20;;;2.17;;
11572;SDS011;5842;52.426;4.886;2023-04-15T20:53:05;4.37;;;1.80;;
11572;SDS011;5842;52.426;4.886;2023-04-15T20:55:33;11.13;;;2.27;;
11572;SDS011;5842;52.426;4.886;2023-04-15T20:58:01;7.90;;;2.17;;
11572;SDS011;5842;52.426;4.886;2023-04-15T21:00:29;10.13;;;2.40;;
11572;SDS011;5842;52.426;4.886;2023-04-15T21:02:57;6.90;;;2.20;;
11572;SDS011;5842;52.426;4.886;2023-04-15T21:05:24;6.70;;;2.13;;
11572;SDS011;5842;52.426;4.886;2023-04-15T21:07:51;7.77;;;2.47;;
11572;SDS011;5842;52.426;4.886;2023-04-15T21:10:21;6.47;;;2.27;;
11572;SDS011;5842;52.426;4.886;2023-04-15T21:12:49;7.23;;;2.27;;
11572;SDS011;5842;52.426;4.886;2023-04-15T21:15:20;6.77;;;2.10;;
11572;SDS011;5842;52.426;4.886;2023-04-15T21:17:47;7.27;;;2.40;;
11572;SDS011;5842;52.426;4.886;2023-04-15T21:20:15;7.40;;;2.20;;